createdAt,value
2018-07-24T00:01:09.640Z,17.86
2018-07-24T00:03:37.969Z,17.78
2018-07-24T00:06:07.341Z,17.77
2018-07-24T00:08:38.610Z,17.76
2018-07-24T00:11:07.458Z,17.70
2018-07-24T00:13:35.788Z,17.65
2018-07-24T00:16:04.145Z,17.58
2018-07-24T00:18:32.584Z,17.49
2018-07-24T00:21:00.920Z,17.45
2018-07-24T00:23:29.260Z,17.37
2018-07-24T00:25:57.648Z,17.28
2018-07-24T00:28:26.864Z,17.30
2018-07-24T00:30:55.197Z,17.31
2018-07-24T00:33:23.532Z,17.28
2018-07-24T00:35:51.882Z,17.27
2018-07-24T00:38:20.240Z,17.20
2018-07-24T00:40:49.138Z,17.16
2018-07-24T00:43:18.746Z,17.10
2018-07-24T00:45:47.128Z,17.13
2018-07-24T00:48:16.140Z,17.06
2018-07-24T00:50:44.525Z,17.03
2018-07-24T00:53:15.431Z,16.98
2018-07-24T00:55:44.494Z,16.91
2018-07-24T00:58:13.501Z,16.89
2018-07-24T01:00:41.844Z,16.86
2018-07-24T01:03:11.220Z,16.81
2018-07-24T01:05:39.568Z,16.75
2018-07-24T01:08:07.900Z,16.71
2018-07-24T01:10:36.236Z,16.63
2018-07-24T01:13:04.653Z,16.64
2018-07-24T01:15:33.218Z,16.70
2018-07-24T01:18:01.688Z,16.65
2018-07-24T01:20:30.857Z,16.57
2018-07-24T01:22:59.577Z,16.50
2018-07-24T01:25:27.927Z,16.49
2018-07-24T01:27:56.505Z,16.47
2018-07-24T01:30:24.858Z,16.45
2018-07-24T01:32:53.217Z,16.51
2018-07-24T01:35:21.591Z,16.59
2018-07-24T01:37:51.059Z,16.54
2018-07-24T01:40:20.419Z,16.57
2018-07-24T01:42:50.084Z,16.44
2018-07-24T01:45:19.667Z,16.46
2018-07-24T01:47:48.682Z,16.49
2018-07-24T01:50:17.679Z,16.47
2018-07-24T01:52:48.546Z,16.34
2018-07-24T01:55:17.505Z,16.26
2018-07-24T01:57:46.580Z,16.25
2018-07-24T02:00:16.308Z,16.20
2018-07-24T02:02:45.913Z,16.26
2018-07-24T02:05:15.566Z,16.24
2018-07-24T02:07:44.570Z,16.26
2018-07-24T02:10:13.005Z,16.23
2018-07-24T02:12:41.369Z,16.15
2018-07-24T02:15:09.739Z,16.13
2018-07-24T02:17:38.436Z,16.09
2018-07-24T02:20:06.881Z,16.16
2018-07-24T02:22:35.309Z,16.13
2018-07-24T02:25:03.668Z,16.13
2018-07-24T02:27:32.108Z,16.09
2018-07-24T02:30:00.489Z,16.08
2018-07-24T02:32:28.853Z,16.05
2018-07-24T02:34:57.205Z,16.05
2018-07-24T02:37:25.574Z,16.10
2018-07-24T02:39:53.917Z,16.09
2018-07-24T02:42:22.273Z,15.98
2018-07-24T02:44:50.647Z,15.89
2018-07-24T02:47:20.117Z,15.83
2018-07-24T02:49:49.654Z,15.78
2018-07-24T02:52:18.569Z,15.75
2018-07-24T02:54:47.573Z,15.71
2018-07-24T02:57:17.152Z,15.69
2018-07-24T02:59:46.621Z,15.67
2018-07-24T03:02:15.621Z,15.67
2018-07-24T03:04:44.689Z,15.67
2018-07-24T03:07:13.686Z,15.67
2018-07-24T03:09:42.065Z,15.67
2018-07-24T03:12:10.549Z,15.68
2018-07-24T03:14:38.903Z,15.63
2018-07-24T03:17:07.262Z,15.62
2018-07-24T03:19:35.613Z,15.61
2018-07-24T03:22:04.002Z,15.60
2018-07-24T03:24:33.237Z,15.62
2018-07-24T03:27:01.596Z,15.67
2018-07-24T03:29:29.954Z,15.86
2018-07-24T03:31:58.325Z,15.79
2018-07-24T03:34:26.681Z,15.84
2018-07-24T03:36:55.088Z,15.77
2018-07-24T03:39:23.441Z,15.76
2018-07-24T03:41:51.794Z,15.78
2018-07-24T03:44:21.433Z,15.83
2018-07-24T03:46:51.138Z,15.75
2018-07-24T03:49:20.160Z,15.75
2018-07-24T03:51:49.167Z,15.75
2018-07-24T03:54:18.787Z,15.78
2018-07-24T03:56:47.133Z,15.78
2018-07-24T03:59:16.520Z,15.74
2018-07-24T04:01:45.795Z,15.78
2018-07-24T04:04:14.706Z,15.74
2018-07-24T04:06:43.114Z,15.82
2018-07-24T04:09:12.102Z,15.89
2018-07-24T04:11:40.781Z,15.87
2018-07-24T04:14:09.177Z,15.94
2018-07-24T04:16:37.562Z,15.86
2018-07-24T04:19:05.929Z,15.81
2018-07-24T04:21:34.347Z,15.85
2018-07-24T04:24:02.724Z,15.93
2018-07-24T04:26:31.138Z,16.01
2018-07-24T04:28:59.497Z,16.07
2018-07-24T04:31:27.885Z,16.15
2018-07-24T04:33:56.242Z,16.21
2018-07-24T04:36:24.698Z,16.26
2018-07-24T04:38:53.070Z,16.33
2018-07-24T04:41:21.451Z,16.42
2018-07-24T04:43:50.331Z,16.46
2018-07-24T04:46:20.709Z,16.58
2018-07-24T04:48:50.082Z,16.62
2018-07-24T04:51:19.750Z,16.66
2018-07-24T04:53:48.114Z,16.72
2018-07-24T04:56:16.474Z,16.81
2018-07-24T04:58:45.509Z,16.89
2018-07-24T05:01:14.863Z,16.97
2018-07-24T05:03:43.635Z,17.04
2018-07-24T05:06:11.998Z,17.11
2018-07-24T05:08:40.382Z,17.24
2018-07-24T05:11:09.782Z,17.34
2018-07-24T05:13:38.157Z,17.65
2018-07-24T05:16:06.573Z,17.78
2018-07-24T05:18:35.226Z,17.87
2018-07-24T05:21:03.655Z,18.01
2018-07-24T05:23:32.008Z,18.06
2018-07-24T05:26:00.465Z,18.29
2018-07-24T05:28:28.826Z,18.35
2018-07-24T05:30:58.123Z,18.48
2018-07-24T05:33:26.514Z,18.64
2018-07-24T05:35:54.907Z,18.83
2018-07-24T05:38:23.305Z,19.08
2018-07-24T05:40:52.157Z,19.20
2018-07-24T05:43:20.804Z,19.32
2018-07-24T05:45:50.817Z,19.50
2018-07-24T05:48:19.927Z,19.60
2018-07-24T05:50:50.499Z,19.87
2018-07-24T05:53:19.885Z,20.18
2018-07-24T05:55:48.276Z,20.31
2018-07-24T05:58:16.673Z,20.43
2018-07-24T06:00:45.909Z,20.60
2018-07-24T06:03:14.767Z,20.64
2018-07-24T06:05:43.705Z,20.84
2018-07-24T06:08:12.054Z,20.95
2018-07-24T06:10:40.444Z,21.08
2018-07-24T06:13:08.869Z,21.16
2018-07-24T06:15:37.235Z,21.30
2018-07-24T06:18:06.202Z,21.36
2018-07-24T06:20:34.581Z,21.50
2018-07-24T06:23:02.973Z,21.53
2018-07-24T06:25:31.391Z,21.56
2018-07-24T06:27:59.775Z,21.58
2018-07-24T06:30:28.469Z,21.68
2018-07-24T06:32:57.017Z,21.83
2018-07-24T06:35:25.373Z,21.83
2018-07-24T06:37:53.730Z,21.91
2018-07-24T06:40:22.089Z,21.96
2018-07-24T06:42:50.446Z,22.02
2018-07-24T06:45:20.239Z,22.08
2018-07-24T06:47:49.413Z,22.18
2018-07-24T06:50:18.864Z,22.28
2018-07-24T06:52:47.249Z,22.38
2018-07-24T06:55:16.617Z,22.46
2018-07-24T06:57:45.914Z,22.61
2018-07-24T07:00:14.814Z,22.63
2018-07-24T07:02:43.202Z,22.71
2018-07-24T07:05:11.649Z,22.73
2018-07-24T07:07:40.551Z,22.78
2018-07-24T07:10:09.175Z,22.77
2018-07-24T07:12:37.584Z,22.90
2018-07-24T07:15:06.765Z,22.91
2018-07-24T07:17:35.129Z,23.09
2018-07-24T07:20:03.532Z,23.11
2018-07-24T07:22:31.923Z,23.10
2018-07-24T07:25:00.338Z,23.17
2018-07-24T07:27:28.703Z,23.22
2018-07-24T07:29:57.086Z,23.40
2018-07-24T07:32:25.544Z,23.34
2018-07-24T07:34:54.905Z,23.50
2018-07-24T07:37:23.263Z,23.50
2018-07-24T07:39:51.606Z,23.75
2018-07-24T07:42:21.106Z,23.65
2018-07-24T07:44:50.422Z,23.69
2018-07-24T07:47:19.238Z,23.68
2018-07-24T07:49:49.416Z,23.79
2018-07-24T07:53:42.361Z,23.90
2018-07-24T07:56:10.705Z,24.01
2018-07-24T07:58:39.076Z,23.93
2018-07-24T08:01:07.473Z,24.00
2018-07-24T08:03:35.832Z,24.13
2018-07-24T08:06:04.277Z,24.28
2018-07-24T08:08:32.663Z,24.42
2018-07-24T08:11:01.033Z,24.48
2018-07-24T08:13:29.410Z,24.66
2018-07-24T08:15:57.815Z,24.67
2018-07-24T08:18:26.177Z,24.86
2018-07-24T08:20:54.537Z,24.77
2018-07-24T08:23:23.008Z,24.97
2018-07-24T08:25:51.359Z,25.23
2018-07-24T08:28:20.826Z,25.33
2018-07-24T08:30:50.173Z,25.37
2018-07-24T08:33:19.085Z,25.72
2018-07-24T08:35:48.857Z,25.98
2018-07-24T08:38:17.217Z,26.24
2018-07-24T08:40:47.542Z,26.13
2018-07-24T08:43:18.250Z,26.12
2018-07-24T08:45:48.090Z,26.10
2018-07-24T08:48:16.514Z,26.11
2018-07-24T08:50:45.779Z,25.98
2018-07-24T08:53:14.931Z,26.20
2018-07-24T08:55:43.572Z,26.19
2018-07-24T08:58:11.699Z,26.50
2018-07-24T09:00:40.078Z,26.64
2018-07-24T09:03:08.507Z,26.64
2018-07-24T09:05:36.861Z,26.91
2018-07-24T09:08:05.245Z,27.18
2018-07-24T09:10:33.689Z,27.26
2018-07-24T09:13:02.097Z,27.31
2018-07-24T09:15:30.531Z,27.12
2018-07-24T09:17:58.885Z,27.56
2018-07-24T09:20:27.270Z,27.53
2018-07-24T09:22:55.629Z,27.03
2018-07-24T09:25:24.007Z,27.02
2018-07-24T09:27:52.373Z,27.00
2018-07-24T09:30:20.706Z,26.86
2018-07-24T09:32:50.123Z,26.82
2018-07-24T09:35:19.416Z,26.88
2018-07-24T09:37:48.441Z,26.81
2018-07-24T09:40:18.041Z,26.94
2018-07-24T09:42:46.430Z,26.96
2018-07-24T09:45:15.404Z,27.13
2018-07-24T09:47:44.890Z,27.31
2018-07-24T09:50:13.310Z,27.08
2018-07-24T09:52:41.682Z,27.11
2018-07-24T09:55:10.074Z,27.27
2018-07-24T09:57:38.449Z,27.13
2018-07-24T10:00:07.985Z,27.00
2018-07-24T10:02:36.387Z,26.82
2018-07-24T10:05:04.798Z,26.53
2018-07-24T10:07:33.392Z,26.50
2018-07-24T10:10:01.763Z,26.82
2018-07-24T10:12:30.145Z,27.22
2018-07-24T10:14:58.533Z,27.43
2018-07-24T10:17:26.913Z,27.87
2018-07-24T10:19:55.346Z,28.46
2018-07-24T10:22:23.774Z,28.74
2018-07-24T10:24:52.137Z,28.99
2018-07-24T10:27:20.507Z,29.45
2018-07-24T10:29:49.543Z,29.18
2018-07-24T10:32:19.546Z,29.14
2018-07-24T10:34:49.553Z,29.40
2018-07-24T10:37:18.561Z,29.12
2018-07-24T10:39:47.654Z,28.88
2018-07-24T10:42:17.818Z,28.66
2018-07-24T10:44:46.181Z,28.44
2018-07-24T10:47:15.171Z,28.63
2018-07-24T10:49:43.961Z,28.74
2018-07-24T10:52:12.489Z,28.25
2018-07-24T10:54:40.856Z,27.91
2018-07-24T10:57:09.193Z,28.25
2018-07-24T10:59:37.549Z,28.23
2018-07-24T11:02:05.924Z,28.06
2018-07-24T11:04:34.281Z,28.22
2018-07-24T11:07:02.673Z,28.60
2018-07-24T11:09:31.118Z,29.17
2018-07-24T11:11:59.460Z,29.35
2018-07-24T11:14:27.840Z,28.80
2018-07-24T11:16:56.259Z,28.91
2018-07-24T11:19:24.622Z,28.62
2018-07-24T11:21:53.033Z,28.41
2018-07-24T11:24:21.399Z,28.23
2018-07-24T11:26:50.794Z,28.11
2018-07-24T11:29:20.414Z,28.08
2018-07-24T11:31:49.665Z,28.28
2018-07-24T11:34:18.825Z,28.59
2018-07-24T11:36:47.201Z,29.00
2018-07-24T11:39:16.801Z,29.50
2018-07-24T11:41:46.109Z,29.73
2018-07-24T11:44:14.897Z,29.98
2018-07-24T11:46:43.856Z,30.25
2018-07-24T11:49:12.220Z,29.61
2018-07-24T11:51:40.618Z,29.45
2018-07-24T11:54:08.989Z,29.09
2018-07-24T11:56:37.521Z,28.82
2018-07-24T11:59:05.886Z,28.52
2018-07-24T12:01:34.234Z,28.96
2018-07-24T12:04:02.610Z,28.85
2018-07-24T12:06:30.957Z,29.44
2018-07-24T12:08:59.297Z,29.49
2018-07-24T12:11:27.674Z,29.64
2018-07-24T12:13:56.025Z,29.92
2018-07-24T12:16:24.611Z,30.11
2018-07-24T12:18:53.002Z,30.43
2018-07-24T12:21:21.418Z,30.11
2018-07-24T12:23:50.418Z,30.15
2018-07-24T12:26:20.122Z,30.37
2018-07-24T12:28:48.786Z,29.99
2018-07-24T12:31:17.161Z,30.17
2018-07-24T12:33:46.605Z,30.08
2018-07-24T12:36:18.089Z,30.25
2018-07-24T12:38:47.303Z,30.19
2018-07-24T12:41:16.506Z,30.18
2018-07-24T12:43:45.849Z,30.47
2018-07-24T12:46:15.099Z,30.94
2018-07-24T12:48:43.960Z,31.10
2018-07-24T12:51:12.394Z,30.95
2018-07-24T12:53:40.755Z,30.73
2018-07-24T12:56:09.134Z,30.74
2018-07-24T12:58:37.546Z,30.42
2018-07-24T13:01:05.901Z,30.10
2018-07-24T13:03:34.282Z,29.87
2018-07-24T13:06:02.638Z,29.37
2018-07-24T13:08:30.992Z,29.05
2018-07-24T13:10:59.486Z,28.77
2018-07-24T13:13:27.821Z,29.18
2018-07-24T13:15:56.220Z,29.65
2018-07-24T13:18:24.576Z,29.94
2018-07-24T13:20:52.962Z,30.46
2018-07-24T13:23:21.306Z,31.00
2018-07-24T13:25:50.929Z,31.18
2018-07-24T13:28:20.852Z,30.81
2018-07-24T13:30:50.115Z,30.66
2018-07-24T13:33:19.514Z,30.19
2018-07-24T13:35:48.647Z,30.01
2018-07-24T13:38:17.867Z,30.17
2018-07-24T13:40:48.571Z,30.18
2018-07-24T13:43:17.984Z,30.37
2018-07-24T13:45:48.226Z,30.34
2018-07-24T13:48:17.157Z,30.55
2018-07-24T13:50:46.643Z,30.61
2018-07-24T13:53:15.034Z,30.67
2018-07-24T13:55:43.460Z,30.36
2018-07-24T13:58:11.830Z,30.35
2018-07-24T14:00:40.225Z,30.79
2018-07-24T14:03:08.597Z,30.77
2018-07-24T14:05:36.979Z,30.84
2018-07-24T14:08:05.377Z,30.70
2018-07-24T14:10:33.762Z,30.98
2018-07-24T14:13:02.140Z,31.18
2018-07-24T14:15:30.501Z,31.32
2018-07-24T14:17:58.864Z,31.56
2018-07-24T14:20:27.250Z,31.56
2018-07-24T14:22:55.622Z,31.35
2018-07-24T14:25:23.987Z,31.38
2018-07-24T14:27:52.331Z,31.19
2018-07-24T14:30:20.700Z,31.23
2018-07-24T14:32:50.476Z,31.49
2018-07-24T14:35:20.173Z,31.64
2018-07-24T14:37:49.660Z,31.76
2018-07-24T14:40:18.617Z,31.48
2018-07-24T14:42:47.775Z,31.68
2018-07-24T14:45:17.182Z,31.48
2018-07-24T14:47:46.690Z,31.41
2018-07-24T14:50:15.061Z,31.63
2018-07-24T14:52:44.060Z,31.89
2018-07-24T14:55:12.521Z,32.87
2018-07-24T14:57:40.862Z,32.74
2018-07-24T15:00:09.273Z,33.57
2018-07-24T15:02:37.683Z,33.88
2018-07-24T15:05:06.238Z,34.66
2018-07-24T15:07:34.614Z,34.04
2018-07-24T15:10:03.025Z,34.04
2018-07-24T15:12:31.410Z,33.84
2018-07-24T15:14:59.814Z,33.19
2018-07-24T15:17:28.202Z,33.73
2018-07-24T15:19:56.629Z,33.73
2018-07-24T15:22:25.147Z,34.41
2018-07-24T15:24:53.526Z,34.57
2018-07-24T15:27:22.789Z,34.37
2018-07-24T15:29:51.141Z,34.92
2018-07-24T15:32:20.465Z,34.94
2018-07-24T15:34:49.829Z,35.01
2018-07-24T15:37:18.268Z,35.34
2018-07-24T15:39:46.691Z,35.39
2018-07-24T15:42:15.603Z,35.07
2018-07-24T15:44:44.975Z,35.03
2018-07-24T15:47:14.334Z,34.84
2018-07-24T15:49:42.714Z,35.12
2018-07-24T15:52:11.224Z,35.09
2018-07-24T15:54:39.539Z,34.45
2018-07-24T15:57:07.946Z,33.76
2018-07-24T15:59:36.345Z,33.11
2018-07-24T16:02:04.738Z,32.20
2018-07-24T16:04:33.095Z,31.85
2018-07-24T16:07:01.470Z,31.34
2018-07-24T16:09:29.839Z,31.02
2018-07-24T16:11:58.229Z,30.75
2018-07-24T16:14:26.594Z,30.51
2018-07-24T16:16:55.053Z,30.29
2018-07-24T16:19:23.418Z,30.18
2018-07-24T16:21:51.807Z,30.29
2018-07-24T16:24:20.177Z,30.01
2018-07-24T16:26:49.159Z,29.74
2018-07-24T16:29:18.777Z,29.72
2018-07-24T16:31:47.162Z,29.52
2018-07-24T16:34:16.410Z,29.42
2018-07-24T16:36:45.136Z,29.18
2018-07-24T16:39:13.567Z,29.07
2018-07-24T16:41:42.236Z,28.95
2018-07-24T16:44:10.613Z,28.85
2018-07-24T16:46:39.020Z,28.90
2018-07-24T16:49:07.383Z,28.85
2018-07-24T16:51:35.778Z,28.96
2018-07-24T16:54:04.183Z,28.61
2018-07-24T16:56:32.529Z,28.32
2018-07-24T16:59:00.910Z,28.34
2018-07-24T17:01:29.302Z,28.07
2018-07-24T17:03:57.685Z,28.14
2018-07-24T17:06:26.054Z,28.30
2018-07-24T17:08:54.430Z,28.23
2018-07-24T17:11:22.792Z,28.23
2018-07-24T17:13:51.181Z,27.97
2018-07-24T17:16:21.568Z,28.03
2018-07-24T17:18:50.226Z,27.96
2018-07-24T17:21:19.449Z,27.89
2018-07-24T17:23:49.079Z,27.77
2018-07-24T17:26:18.932Z,27.66
2018-07-24T17:28:47.622Z,27.57
2018-07-24T17:31:16.696Z,27.60
2018-07-24T17:33:46.088Z,27.57
2018-07-24T17:36:15.221Z,27.54
2018-07-24T17:38:43.639Z,27.40
2018-07-24T17:41:11.997Z,27.25
2018-07-24T17:43:40.429Z,27.37
2018-07-24T17:46:08.777Z,27.15
2018-07-24T17:48:37.133Z,27.12
2018-07-24T17:51:05.570Z,27.10
2018-07-24T17:53:33.935Z,26.96
2018-07-24T17:56:02.336Z,26.91
2018-07-24T17:58:30.716Z,26.90
2018-07-24T18:00:59.119Z,26.81
2018-07-24T18:03:27.487Z,26.70
2018-07-24T18:05:55.833Z,26.54
2018-07-24T18:08:24.181Z,26.65
2018-07-24T18:10:52.538Z,26.53
2018-07-24T18:13:20.880Z,26.41
2018-07-24T18:15:50.639Z,26.36
2018-07-24T18:18:20.692Z,26.24
2018-07-24T18:20:50.251Z,26.05
2018-07-24T18:23:19.794Z,25.99
2018-07-24T18:25:48.148Z,25.94
2018-07-24T18:28:17.226Z,25.87
2018-07-24T18:30:46.292Z,25.79
2018-07-24T18:33:14.689Z,25.64
2018-07-24T18:35:43.057Z,25.65
2018-07-24T18:38:11.424Z,25.47
2018-07-24T18:40:39.789Z,25.36
2018-07-24T18:43:08.162Z,25.26
2018-07-24T18:45:36.521Z,25.16
2018-07-24T18:48:05.148Z,25.09
2018-07-24T18:50:33.690Z,25.00
2018-07-24T18:53:02.100Z,24.95
2018-07-24T18:55:30.481Z,24.84
2018-07-24T18:57:59.001Z,24.77
2018-07-24T19:00:27.503Z,24.69
2018-07-24T19:02:56.087Z,24.62
2018-07-24T19:05:25.198Z,24.53
2018-07-24T19:07:53.991Z,24.51
2018-07-24T19:10:22.757Z,24.41
2018-07-24T19:12:51.568Z,24.33
2018-07-24T19:15:21.374Z,24.29
2018-07-24T19:17:51.260Z,24.22
2018-07-24T19:20:21.057Z,24.17
2018-07-24T19:22:51.185Z,24.27
2018-07-24T19:25:22.305Z,24.11
2018-07-24T19:27:51.301Z,23.97
2018-07-24T19:30:21.226Z,23.87
2018-07-24T19:32:50.966Z,23.74
2018-07-24T19:35:20.830Z,23.67
2018-07-24T19:37:50.095Z,23.55
2018-07-24T19:40:19.801Z,23.54
2018-07-24T19:42:49.638Z,23.47
2018-07-24T19:45:18.345Z,23.39
2018-07-24T19:47:48.255Z,23.33
2018-07-24T19:50:19.581Z,23.30
2018-07-24T19:52:50.697Z,23.22
2018-07-24T19:55:20.203Z,23.15
2018-07-24T19:57:50.288Z,23.06
2018-07-24T20:00:19.687Z,23.06
2018-07-24T20:02:49.389Z,23.03
2018-07-24T20:05:18.208Z,23.00
2018-07-24T20:07:48.725Z,22.89
2018-07-24T20:10:18.599Z,22.80
2018-07-24T20:12:48.721Z,22.72
2018-07-24T20:15:19.633Z,22.64
2018-07-24T20:17:50.022Z,22.58
2018-07-24T20:20:19.783Z,22.51
2018-07-24T20:22:49.694Z,22.46
2018-07-24T20:25:19.831Z,22.49
2018-07-24T20:27:49.563Z,22.49
2018-07-24T20:30:18.345Z,22.47
2018-07-24T20:32:48.873Z,22.42
2018-07-24T20:35:20.742Z,22.41
2018-07-24T20:37:49.949Z,22.39
2018-07-24T20:40:19.473Z,22.32
2018-07-24T20:42:49.506Z,22.25
2018-07-24T20:45:18.943Z,22.25
2018-07-24T20:47:48.363Z,22.15
2018-07-24T20:50:18.548Z,22.14
2018-07-24T20:52:47.114Z,22.03
2018-07-24T20:55:16.613Z,21.92
2018-07-24T20:57:45.831Z,21.85
2018-07-24T21:00:14.939Z,21.78
2018-07-24T21:02:43.401Z,21.71
2018-07-24T21:05:11.926Z,21.66
2018-07-24T21:07:47.523Z,21.66
2018-07-24T21:10:18.681Z,21.65
2018-07-24T21:12:49.408Z,21.62
2018-07-24T21:15:19.410Z,21.55
2018-07-24T21:17:48.122Z,21.51
2018-07-24T21:20:17.622Z,21.45
2018-07-24T21:22:48.607Z,21.46
2018-07-24T21:25:17.749Z,21.49
2018-07-24T21:27:48.428Z,21.45
2018-07-24T21:30:18.184Z,21.41
2018-07-24T21:32:46.573Z,21.33
2018-07-24T21:35:15.481Z,21.25
2018-07-24T21:37:44.269Z,21.18
2018-07-24T21:40:12.952Z,21.13
2018-07-24T21:42:41.325Z,21.09
2018-07-24T21:45:09.737Z,21.08
2018-07-24T21:47:38.089Z,21.09
2018-07-24T21:50:06.497Z,20.99
2018-07-24T21:52:34.961Z,20.97
2018-07-24T21:55:03.355Z,21.02
2018-07-24T21:57:31.466Z,20.93
2018-07-24T21:59:59.805Z,20.98
2018-07-24T22:02:28.181Z,20.91
2018-07-24T22:04:56.590Z,20.90
2018-07-24T22:07:24.968Z,20.86
2018-07-24T22:09:53.315Z,20.80
2018-07-24T22:12:21.686Z,20.77
2018-07-24T22:14:51.191Z,20.70
2018-07-24T22:17:20.170Z,20.66
2018-07-24T22:19:49.614Z,20.64
2018-07-24T22:22:19.597Z,20.62
2018-07-24T22:24:48.689Z,20.62
2018-07-24T22:27:17.906Z,20.62
2018-07-24T22:29:47.238Z,20.53
2018-07-24T22:32:16.477Z,20.56
2018-07-24T22:34:44.833Z,20.45
2018-07-24T22:37:13.195Z,20.40
2018-07-24T22:39:41.533Z,20.34
2018-07-24T22:42:09.893Z,20.28
2018-07-24T22:44:38.255Z,20.28
2018-07-24T22:47:06.607Z,20.27
2018-07-24T22:49:34.954Z,20.24
2018-07-24T22:52:03.289Z,20.21
2018-07-24T22:54:31.642Z,20.19
2018-07-24T22:57:00.010Z,20.25
2018-07-24T22:59:28.413Z,20.22
2018-07-24T23:01:56.819Z,20.22
2018-07-24T23:04:25.178Z,20.26
2018-07-24T23:06:53.613Z,20.25
2018-07-24T23:09:21.953Z,20.22
2018-07-24T23:11:50.301Z,20.18
2018-07-24T23:14:19.293Z,20.13
2018-07-24T23:16:48.878Z,20.12
2018-07-24T23:19:17.258Z,20.05
2018-07-24T23:21:46.678Z,19.98
2018-07-24T23:24:15.409Z,19.94
2018-07-24T23:26:43.831Z,19.91
2018-07-24T23:29:12.184Z,19.88
2018-07-24T23:31:40.548Z,19.84
2018-07-24T23:34:08.889Z,19.81
2018-07-24T23:36:37.234Z,19.85
2018-07-24T23:39:07.924Z,19.83
2018-07-24T23:41:36.297Z,19.83
2018-07-24T23:44:04.649Z,19.73
2018-07-24T23:46:32.998Z,19.66
2018-07-24T23:49:01.398Z,19.61
2018-07-24T23:51:30.098Z,19.56
2018-07-24T23:53:58.458Z,19.61
2018-07-24T23:56:26.819Z,19.63
2018-07-24T23:58:55.200Z,19.63
